createdAt,value
2022-08-17T00:00:12.792Z,3.00
2022-08-17T00:03:03.343Z,3.15
2022-08-17T00:05:32.023Z,3.58
2022-08-17T00:07:58.874Z,3.05
2022-08-17T00:10:25.807Z,3.12
2022-08-17T00:12:52.699Z,3.25
2022-08-17T00:15:21.555Z,3.15
2022-08-17T00:17:49.136Z,2.53
2022-08-17T00:20:15.992Z,3.35
2022-08-17T00:22:45.063Z,2.90
2022-08-17T00:25:16.723Z,3.37
2022-08-17T00:27:43.304Z,3.20
2022-08-17T00:30:10.976Z,3.50
2022-08-17T00:33:14.624Z,3.20
2022-08-17T00:35:34.046Z,2.95
2022-08-17T00:38:00.611Z,3.17
2022-08-17T00:40:27.192Z,3.17
2022-08-17T00:43:37.350Z,3.03
2022-08-17T00:46:06.957Z,3.10
2022-08-17T00:48:33.572Z,2.78
2022-08-17T00:51:23.210Z,3.22
2022-08-17T00:53:51.502Z,2.92
2022-08-17T00:56:24.133Z,2.95
2022-08-17T00:58:50.704Z,3.22
2022-08-17T01:01:21.312Z,3.10
2022-08-17T01:03:49.283Z,2.83
2022-08-17T01:06:15.981Z,3.28
2022-08-17T01:08:43.109Z,2.90
2022-08-17T01:11:09.806Z,3.25
2022-08-17T01:13:41.295Z,3.35
2022-08-17T01:16:16.434Z,3.00
2022-08-17T01:18:44.488Z,3.20
2022-08-17T01:21:14.316Z,2.92
2022-08-17T01:23:42.383Z,3.08
2022-08-17T01:26:09.108Z,3.05
2022-08-17T01:28:53.542Z,3.15
2022-08-17T01:31:21.912Z,3.33
2022-08-17T01:33:48.476Z,2.83
2022-08-17T01:36:15.048Z,3.12
2022-08-17T01:38:41.632Z,3.17
2022-08-17T01:41:11.754Z,2.97
2022-08-17T01:43:59.457Z,2.90
2022-08-17T01:46:28.284Z,3.12
2022-08-17T01:48:56.350Z,2.75
2022-08-17T01:51:23.403Z,3.12
2022-08-17T01:53:53.230Z,2.85
2022-08-17T01:56:22.085Z,2.87
2022-08-17T01:58:48.738Z,3.00
2022-08-17T02:01:19.478Z,2.92
2022-08-17T02:03:53.255Z,3.28
2022-08-17T02:06:27.822Z,3.12
2022-08-17T02:09:02.709Z,2.97
2022-08-17T02:14:02.904Z,3.20
2022-08-17T02:16:37.415Z,3.03
2022-08-17T02:19:09.910Z,3.25
2022-08-17T02:21:37.350Z,3.22
2022-08-17T02:24:05.503Z,3.08
2022-08-17T02:26:32.113Z,3.12
2022-08-17T02:28:58.676Z,3.28
2022-08-17T02:31:25.276Z,3.03
2022-08-17T02:33:56.913Z,3.15
2022-08-17T02:36:31.114Z,3.47
2022-08-17T02:38:58.678Z,3.10
2022-08-17T02:41:25.382Z,3.28
2022-08-17T02:43:53.160Z,2.90
2022-08-17T02:46:19.757Z,3.50
2022-08-17T02:48:46.491Z,3.10
2022-08-17T02:51:13.067Z,3.20
2022-08-17T02:53:39.634Z,2.90
2022-08-17T02:56:06.459Z,3.00
2022-08-17T02:58:35.567Z,3.33
2022-08-17T03:01:04.318Z,3.35
2022-08-17T03:03:30.950Z,3.00
2022-08-17T03:05:57.898Z,2.92
2022-08-17T03:08:25.452Z,3.33
2022-08-17T03:10:52.055Z,3.28
2022-08-17T03:13:18.631Z,3.00
2022-08-17T03:15:45.639Z,3.60
2022-08-17T03:18:19.304Z,3.12
2022-08-17T03:20:51.949Z,3.60
2022-08-17T03:23:18.773Z,3.20
2022-08-17T03:25:53.051Z,3.00
2022-08-17T03:28:20.292Z,3.42
2022-08-17T03:30:46.899Z,3.30
2022-08-17T03:33:13.745Z,3.10
2022-08-17T03:35:40.614Z,3.60
2022-08-17T03:38:08.838Z,3.85
2022-08-17T03:40:57.565Z,3.30
2022-08-17T03:43:22.267Z,2.70
2022-08-17T03:46:19.284Z,3.00
2022-08-17T03:49:12.347Z,3.25
2022-08-17T03:51:57.140Z,3.33
2022-08-17T03:54:42.202Z,3.12
2022-08-17T03:57:10.061Z,3.20
2022-08-17T03:59:36.916Z,3.00
2022-08-17T04:02:09.483Z,3.12
2022-08-17T04:04:36.420Z,3.25
2022-08-17T04:07:03.183Z,3.00
2022-08-17T04:09:29.763Z,3.22
2022-08-17T04:11:57.312Z,3.33
2022-08-17T04:14:31.135Z,3.37
2022-08-17T04:16:57.726Z,3.15
2022-08-17T04:19:24.288Z,3.30
2022-08-17T04:21:50.871Z,3.53
2022-08-17T04:24:17.440Z,3.55
2022-08-17T04:26:53.826Z,3.40
2022-08-17T04:29:21.381Z,3.40
2022-08-17T04:31:48.062Z,3.12
2022-08-17T04:34:14.644Z,3.22
2022-08-17T04:36:50.329Z,3.17
2022-08-17T04:39:17.218Z,3.17
2022-08-17T04:42:09.649Z,3.53
2022-08-17T04:44:37.424Z,3.70
2022-08-17T04:47:05.081Z,3.53
2022-08-17T04:49:32.575Z,3.53
2022-08-17T04:52:04.146Z,3.60
2022-08-17T04:54:31.251Z,3.15
2022-08-17T04:56:57.832Z,3.75
2022-08-17T04:59:24.493Z,3.40
2022-08-17T05:01:51.520Z,3.33
2022-08-17T05:04:34.299Z,3.30
2022-08-17T05:07:01.300Z,3.83
2022-08-17T05:09:28.111Z,3.47
2022-08-17T05:11:55.348Z,4.30
2022-08-17T05:14:32.921Z,4.00
2022-08-17T05:17:01.124Z,3.40
2022-08-17T05:19:28.468Z,3.22
2022-08-17T05:21:55.041Z,3.75
2022-08-17T05:24:40.715Z,3.70
2022-08-17T05:27:08.483Z,3.60
2022-08-17T05:29:35.766Z,4.00
2022-08-17T05:32:38.088Z,3.30
2022-08-17T05:34:59.941Z,4.10
2022-08-17T05:37:26.543Z,3.87
2022-08-17T05:39:53.858Z,3.30
2022-08-17T05:42:20.510Z,3.72
2022-08-17T05:44:47.134Z,3.30
2022-08-17T05:47:13.712Z,3.65
2022-08-17T05:49:40.274Z,3.65
2022-08-17T05:52:29.579Z,3.92
2022-08-17T05:54:59.120Z,3.83
2022-08-17T05:58:07.591Z,4.28
2022-08-17T06:00:58.598Z,3.83
2022-08-17T06:03:37.827Z,4.35
2022-08-17T06:06:07.264Z,4.40
2022-08-17T06:08:39.524Z,4.32
2022-08-17T06:11:27.673Z,4.43
2022-08-17T06:14:26.978Z,3.95
2022-08-17T06:16:57.606Z,4.22
2022-08-17T06:19:34.217Z,4.37
2022-08-17T06:22:02.684Z,4.10
2022-08-17T06:24:37.609Z,4.60
2022-08-17T06:27:11.344Z,4.07
2022-08-17T06:29:41.230Z,4.45
2022-08-17T06:32:09.098Z,4.60
2022-08-17T06:34:37.390Z,5.55
2022-08-17T06:37:22.104Z,4.93
2022-08-17T06:39:52.441Z,4.72
2022-08-17T06:43:06.450Z,4.82
2022-08-17T06:45:34.677Z,4.50
2022-08-17T06:48:07.141Z,5.45
2022-08-17T06:51:04.193Z,4.53
2022-08-17T06:53:40.475Z,5.32
2022-08-17T06:56:09.382Z,4.72
2022-08-17T06:58:37.366Z,5.30
2022-08-17T07:01:12.997Z,4.95
2022-08-17T07:03:54.764Z,5.10
2022-08-17T07:06:23.863Z,4.50
2022-08-17T07:09:14.889Z,5.30
2022-08-17T07:11:51.895Z,4.95
2022-08-17T07:14:44.838Z,5.25
2022-08-17T07:17:13.474Z,4.82
2022-08-17T07:19:41.038Z,4.90
2022-08-17T07:22:10.717Z,5.55
2022-08-17T07:24:58.291Z,5.35
2022-08-17T07:27:51.823Z,4.95
2022-08-17T07:30:21.693Z,5.22
2022-08-17T07:32:51.541Z,5.10
2022-08-17T07:35:23.080Z,5.12
2022-08-17T07:38:25.664Z,5.47
2022-08-17T07:40:57.586Z,4.70
2022-08-17T07:43:37.143Z,5.00
2022-08-17T07:46:38.730Z,5.37
2022-08-17T07:49:08.477Z,5.22
2022-08-17T07:51:55.344Z,5.43
2022-08-17T07:54:35.686Z,5.25
2022-08-17T07:57:14.452Z,5.10
2022-08-17T07:59:43.288Z,5.55
2022-08-17T08:02:31.653Z,5.43
2022-08-17T08:05:13.006Z,5.30
2022-08-17T08:07:52.812Z,5.47
2022-08-17T08:10:28.679Z,5.20
2022-08-17T08:13:20.589Z,4.68
2022-08-17T08:15:53.682Z,5.12
2022-08-17T08:18:53.911Z,5.53
2022-08-17T08:21:22.416Z,5.03
2022-08-17T08:24:21.582Z,5.00
2022-08-17T08:26:47.991Z,5.68
2022-08-17T08:29:22.638Z,4.95
2022-08-17T08:32:10.791Z,5.12
2022-08-17T08:35:01.759Z,4.90
2022-08-17T08:37:49.981Z,5.15
2022-08-17T08:40:29.994Z,5.15
2022-08-17T08:43:26.678Z,5.20
2022-08-17T08:46:24.253Z,5.30
2022-08-17T08:49:10.182Z,5.78
2022-08-17T08:51:55.684Z,5.65
2022-08-17T08:54:31.420Z,5.45
2022-08-17T09:00:05.952Z,5.87
2022-08-17T09:03:03.380Z,5.97
2022-08-17T09:06:37.765Z,5.82
2022-08-17T09:09:08.900Z,6.05
2022-08-17T09:12:04.182Z,5.85
2022-08-17T09:14:44.935Z,5.07
2022-08-17T09:17:22.014Z,6.03
2022-08-17T09:19:51.960Z,5.67
2022-08-17T09:22:18.502Z,5.60
2022-08-17T09:24:54.698Z,5.53
2022-08-17T09:27:22.777Z,5.55
2022-08-17T09:29:56.348Z,5.28
2022-08-17T09:32:29.083Z,4.93
2022-08-17T09:35:00.208Z,5.00
2022-08-17T09:37:32.643Z,5.87
2022-08-17T09:40:11.395Z,5.87
2022-08-17T09:42:52.767Z,5.80
2022-08-17T09:45:25.388Z,5.50
2022-08-17T09:48:02.598Z,6.00
2022-08-17T09:51:01.625Z,4.93
2022-08-17T09:53:31.786Z,4.97
2022-08-17T09:56:23.993Z,5.30
2022-08-17T09:59:25.246Z,5.12
2022-08-17T10:01:59.530Z,5.32
2022-08-17T10:04:52.794Z,5.40
2022-08-17T10:07:42.286Z,5.30
2022-08-17T10:10:14.464Z,5.37
2022-08-17T10:12:47.636Z,5.12
2022-08-17T10:15:22.559Z,5.40
2022-08-17T10:18:16.483Z,4.93
2022-08-17T10:21:20.136Z,5.47
2022-08-17T10:24:08.079Z,4.78
2022-08-17T10:26:55.426Z,5.12
2022-08-17T10:29:28.921Z,5.40
2022-08-17T10:32:00.686Z,5.30
2022-08-17T10:34:30.182Z,4.82
2022-08-17T10:40:10.059Z,4.93
2022-08-17T10:42:58.077Z,4.57
2022-08-17T10:46:27.694Z,4.53
2022-08-17T10:49:16.693Z,4.70
2022-08-17T10:51:45.922Z,4.82
2022-08-17T10:54:24.451Z,4.50
2022-08-17T10:56:55.208Z,4.15
2022-08-17T10:59:44.790Z,4.35
2022-08-17T11:02:23.537Z,4.22
2022-08-17T11:05:11.987Z,4.50
2022-08-17T11:08:01.658Z,4.90
2022-08-17T11:11:06.814Z,4.65
2022-08-17T11:13:59.302Z,4.80
2022-08-17T11:16:36.120Z,4.53
2022-08-17T11:19:14.851Z,4.47
2022-08-17T11:22:06.271Z,4.65
2022-08-17T11:24:39.876Z,4.10
2022-08-17T11:27:29.955Z,4.18
2022-08-17T11:30:02.280Z,4.82
2022-08-17T11:32:38.145Z,4.07
2022-08-17T11:35:22.534Z,4.17
2022-08-17T11:38:05.426Z,3.80
2022-08-17T11:40:38.561Z,4.35
2022-08-17T11:43:45.475Z,3.97
2022-08-17T11:49:01.831Z,4.03
2022-08-17T11:51:58.080Z,4.00
2022-08-17T11:54:33.676Z,4.03
2022-08-17T11:57:21.575Z,4.35
2022-08-17T11:59:48.085Z,3.90
2022-08-17T12:02:32.855Z,3.60
2022-08-17T12:05:17.300Z,3.85
2022-08-17T12:08:11.540Z,3.78
2022-08-17T12:10:48.296Z,3.83
2022-08-17T12:13:15.717Z,4.20
2022-08-17T12:15:50.188Z,3.78
2022-08-17T12:18:39.565Z,3.70
2022-08-17T12:21:21.312Z,3.90
2022-08-17T12:24:13.178Z,3.75
2022-08-17T12:26:40.680Z,3.80
2022-08-17T12:29:18.067Z,3.50
2022-08-17T12:31:59.041Z,4.43
2022-08-17T12:34:34.924Z,3.85
2022-08-17T12:37:05.047Z,4.12
2022-08-17T12:39:33.990Z,3.70
2022-08-17T12:42:02.616Z,3.85
2022-08-17T12:44:34.060Z,3.83
2022-08-17T12:47:06.947Z,3.83
2022-08-17T12:49:35.608Z,4.25
2022-08-17T12:52:08.263Z,4.35
2022-08-17T12:54:59.579Z,4.72
2022-08-17T12:57:33.670Z,5.03
2022-08-17T13:00:04.375Z,4.50
2022-08-17T13:02:47.382Z,4.78
2022-08-17T13:05:23.302Z,4.78
2022-08-17T13:07:50.665Z,4.87
2022-08-17T13:10:21.438Z,5.45
2022-08-17T13:12:50.826Z,4.87
2022-08-17T13:15:27.553Z,5.12
2022-08-17T13:18:03.847Z,5.72
2022-08-17T13:20:30.467Z,5.30
2022-08-17T13:22:58.179Z,6.50
2022-08-17T13:25:25.433Z,4.97
2022-08-17T13:27:52.947Z,5.45
2022-08-17T13:30:24.067Z,5.28
2022-08-17T13:32:50.731Z,4.87
2022-08-17T13:35:38.866Z,5.25
2022-08-17T13:38:12.351Z,5.10
2022-08-17T13:40:42.108Z,5.10
2022-08-17T13:43:09.264Z,5.32
2022-08-17T13:45:50.799Z,5.20
2022-08-17T13:48:30.255Z,5.07
2022-08-17T13:50:56.833Z,5.20
2022-08-17T13:53:40.156Z,4.95
2022-08-17T13:56:38.700Z,5.28
2022-08-17T13:59:03.989Z,4.65
2022-08-17T14:01:36.033Z,4.62
2022-08-17T14:04:05.706Z,5.30
2022-08-17T14:07:03.675Z,5.40
2022-08-17T14:09:38.308Z,4.70
2022-08-17T14:12:06.907Z,5.23
2022-08-17T14:14:33.458Z,5.00
2022-08-17T14:17:00.023Z,5.10
2022-08-17T14:19:26.736Z,5.30
2022-08-17T14:21:58.786Z,4.78
2022-08-17T14:24:30.356Z,5.00
2022-08-17T14:26:57.609Z,4.80
2022-08-17T14:29:25.513Z,5.05
2022-08-17T14:31:54.359Z,4.40
2022-08-17T14:34:22.018Z,5.03
2022-08-17T14:36:48.844Z,4.62
2022-08-17T14:39:15.835Z,4.80
2022-08-17T14:41:42.444Z,4.80
2022-08-17T14:44:12.641Z,4.05
2022-08-17T14:46:40.848Z,4.60
2022-08-17T14:49:08.306Z,4.72
2022-08-17T14:51:36.412Z,4.57
2022-08-17T14:54:10.267Z,4.55
2022-08-17T14:56:38.594Z,4.68
2022-08-17T14:59:05.187Z,4.47
2022-08-17T15:01:31.842Z,4.80
2022-08-17T15:03:58.540Z,4.32
2022-08-17T15:06:25.183Z,4.72
2022-08-17T15:08:52.129Z,4.57
2022-08-17T15:11:18.787Z,4.85
2022-08-17T15:13:52.776Z,4.20
2022-08-17T15:16:20.495Z,3.95
2022-08-17T15:18:47.193Z,4.50
2022-08-17T15:21:14.845Z,4.55
2022-08-17T15:23:41.414Z,4.30
2022-08-17T15:26:10.272Z,4.37
2022-08-17T15:28:37.668Z,5.07
2022-08-17T15:31:05.733Z,4.65
2022-08-17T15:33:32.360Z,4.70
2022-08-17T15:36:04.659Z,4.37
2022-08-17T15:38:35.276Z,4.97
2022-08-17T15:41:01.882Z,4.37
2022-08-17T15:43:32.456Z,5.05
2022-08-17T15:46:07.185Z,4.10
2022-08-17T15:48:43.616Z,4.65
2022-08-17T15:51:13.871Z,4.28
2022-08-17T15:53:41.925Z,4.50
2022-08-17T15:56:08.515Z,4.55
2022-08-17T15:58:35.679Z,4.50
2022-08-17T16:01:16.617Z,4.30
2022-08-17T16:04:04.246Z,4.93
2022-08-17T16:06:31.911Z,4.72
2022-08-17T16:08:59.535Z,3.95
2022-08-17T16:11:26.400Z,4.30
2022-08-17T16:13:54.744Z,5.00
2022-08-17T16:16:23.655Z,4.35
2022-08-17T16:18:53.713Z,3.60
2022-08-17T16:21:25.714Z,4.35
2022-08-17T16:24:06.953Z,4.18
2022-08-17T16:26:40.030Z,3.92
2022-08-17T16:29:06.728Z,4.72
2022-08-17T16:31:34.004Z,4.45
2022-08-17T16:34:17.439Z,4.00
2022-08-17T16:36:54.709Z,4.10
2022-08-17T16:39:26.802Z,3.78
2022-08-17T16:41:53.568Z,4.80
2022-08-17T16:44:20.767Z,4.12
2022-08-17T16:46:47.761Z,3.95
2022-08-17T16:49:24.467Z,3.90
2022-08-17T16:52:02.954Z,3.87
2022-08-17T16:54:29.553Z,4.22
2022-08-17T16:56:56.138Z,4.37
2022-08-17T16:59:38.739Z,4.30
2022-08-17T17:02:10.862Z,3.87
2022-08-17T17:04:42.116Z,4.05
2022-08-17T17:07:25.717Z,3.87
2022-08-17T17:09:55.364Z,3.87
2022-08-17T17:13:01.724Z,3.80
2022-08-17T17:15:08.820Z,4.37
2022-08-17T17:17:36.924Z,4.25
2022-08-17T17:20:03.381Z,3.90
2022-08-17T17:22:50.107Z,3.70
2022-08-17T17:25:48.793Z,4.05
2022-08-17T17:28:34.933Z,4.37
2022-08-17T17:31:21.488Z,3.53
2022-08-17T17:34:03.775Z,4.10
2022-08-17T17:36:41.902Z,4.00
2022-08-17T17:39:32.472Z,4.15
2022-08-17T17:42:02.294Z,3.62
2022-08-17T17:44:32.318Z,4.12
2022-08-17T17:47:00.112Z,4.18
2022-08-17T17:49:28.925Z,3.87
2022-08-17T17:52:08.874Z,4.30
2022-08-17T17:55:28.506Z,3.83
2022-08-17T18:01:05.068Z,3.95
2022-08-17T18:03:53.021Z,3.80
2022-08-17T18:06:35.535Z,3.78
2022-08-17T18:09:19.409Z,3.72
2022-08-17T18:11:51.394Z,4.10
2022-08-17T18:14:45.723Z,3.53
2022-08-17T18:17:14.238Z,3.40
2022-08-17T18:19:41.444Z,3.35
2022-08-17T18:22:14.686Z,4.03
2022-08-17T18:24:44.834Z,3.85
2022-08-17T18:27:39.231Z,3.58
2022-08-17T18:30:14.995Z,3.85
2022-08-17T18:32:43.524Z,3.70
2022-08-17T18:35:10.066Z,3.87
2022-08-17T18:37:49.359Z,3.53
2022-08-17T18:40:23.380Z,4.07
2022-08-17T18:43:00.437Z,3.35
2022-08-17T18:45:47.373Z,3.60
2022-08-17T18:48:36.449Z,3.47
2022-08-17T18:51:39.872Z,3.42
2022-08-17T18:54:22.875Z,3.70
2022-08-17T18:56:56.673Z,3.78
2022-08-17T18:59:42.244Z,3.80
2022-08-17T19:02:19.747Z,3.60
2022-08-17T19:05:04.025Z,3.97
2022-08-17T19:07:35.271Z,3.85
2022-08-17T19:10:46.415Z,3.72
2022-08-17T19:13:24.527Z,3.62
2022-08-17T19:16:13.804Z,3.72
2022-08-17T19:18:53.088Z,3.60
2022-08-17T19:21:40.380Z,4.00
2022-08-17T19:24:11.645Z,3.62
2022-08-17T19:27:10.397Z,3.62
2022-08-17T19:29:42.945Z,3.33
2022-08-17T19:32:10.116Z,3.35
2022-08-17T19:34:37.587Z,3.70
2022-08-17T19:37:25.957Z,3.40
2022-08-17T19:39:59.467Z,3.78
2022-08-17T19:42:58.098Z,3.45
2022-08-17T19:45:53.450Z,4.12
2022-08-17T19:48:39.824Z,3.62
2022-08-17T19:51:13.626Z,3.65
2022-08-17T19:54:14.140Z,3.45
2022-08-17T19:56:40.698Z,3.50
2022-08-17T19:59:20.116Z,3.72
2022-08-17T20:01:58.193Z,3.60
2022-08-17T20:04:32.431Z,3.37
2022-08-17T20:07:18.712Z,3.90
2022-08-17T20:09:49.346Z,3.47
2022-08-17T20:12:21.511Z,3.70
2022-08-17T20:14:55.218Z,3.35
2022-08-17T20:17:28.374Z,3.37
2022-08-17T20:20:19.771Z,4.00
2022-08-17T20:22:58.682Z,3.37
2022-08-17T20:26:06.808Z,3.95
2022-08-17T20:28:35.176Z,3.42
2022-08-17T20:31:02.119Z,3.05
2022-08-17T20:33:36.756Z,3.58
2022-08-17T20:36:12.819Z,3.70
2022-08-17T20:38:55.527Z,3.55
2022-08-17T20:41:31.171Z,3.70
2022-08-17T20:43:58.056Z,3.80
2022-08-17T20:46:36.725Z,3.22
2022-08-17T20:49:16.470Z,3.60
2022-08-17T20:52:07.769Z,3.47
2022-08-17T20:54:54.596Z,3.00
2022-08-17T20:57:33.388Z,3.37
2022-08-17T21:00:16.837Z,3.58
2022-08-17T21:02:45.078Z,3.10
2022-08-17T21:05:34.808Z,3.80
2022-08-17T21:08:25.046Z,3.15
2022-08-17T21:10:53.296Z,4.43
2022-08-17T21:13:34.818Z,3.50
2022-08-17T21:16:22.923Z,3.75
2022-08-17T21:18:59.969Z,3.60
2022-08-17T21:22:05.754Z,3.50
2022-08-17T21:24:41.461Z,3.70
2022-08-17T21:27:29.319Z,3.37
2022-08-17T21:30:01.776Z,3.30
2022-08-17T21:32:37.011Z,3.20
2022-08-17T21:35:21.607Z,3.58
2022-08-17T21:37:48.806Z,3.65
2022-08-17T21:40:18.648Z,3.47
2022-08-17T21:42:50.540Z,3.03
2022-08-17T21:45:31.820Z,3.40
2022-08-17T21:48:14.841Z,3.30
2022-08-17T21:50:45.269Z,3.47
2022-08-17T21:53:13.697Z,3.65
2022-08-17T21:55:40.529Z,3.90
2022-08-17T21:58:19.372Z,3.28
2022-08-17T22:00:46.018Z,3.28
2022-08-17T22:03:23.440Z,3.50
2022-08-17T22:05:51.382Z,3.35
2022-08-17T22:08:20.167Z,3.40
2022-08-17T22:10:48.980Z,3.50
2022-08-17T22:13:24.628Z,3.42
2022-08-17T22:33:50.580Z,3.35
2022-08-17T22:36:29.195Z,3.25
2022-08-17T22:39:23.085Z,3.12
2022-08-17T22:41:57.136Z,3.33
2022-08-17T22:44:35.565Z,3.28
2022-08-17T22:47:18.851Z,3.17
2022-08-17T22:49:56.482Z,3.20
2022-08-17T22:52:32.054Z,3.42
2022-08-17T22:55:33.859Z,3.47
2022-08-17T22:58:19.795Z,3.33
2022-08-17T23:00:48.172Z,3.40
2022-08-17T23:03:14.869Z,3.40
2022-08-17T23:05:44.861Z,3.35
2022-08-17T23:08:13.481Z,3.47
2022-08-17T23:10:41.422Z,3.35
2022-08-17T23:13:11.842Z,3.45
2022-08-17T23:15:40.212Z,3.47
2022-08-17T23:18:07.064Z,3.03
2022-08-17T23:20:37.551Z,3.25
2022-08-17T23:23:06.685Z,3.08
2022-08-17T23:25:34.087Z,3.28
2022-08-17T23:28:03.847Z,3.37
2022-08-17T23:30:31.554Z,3.58
2022-08-17T23:33:02.543Z,3.30
2022-08-17T23:35:39.824Z,3.30
2022-08-17T23:38:08.958Z,3.55
2022-08-17T23:40:35.593Z,3.22
2022-08-17T23:43:04.497Z,3.00
2022-08-17T23:45:32.574Z,3.28
2022-08-17T23:48:00.309Z,3.65
2022-08-17T23:50:29.880Z,3.25
2022-08-17T23:52:57.688Z,3.25
2022-08-17T23:55:24.348Z,3.05
2022-08-17T23:57:51.133Z,3.30
